Time;durP1;ratioP1;P1;durP2;ratioP2;P2;SDS_P1;SDS_P2;PMS_P1;PMS_P2;Temp;Humidity;BMP_temperature;BMP_pressure;BME280_temperature;BME280_humidity;BME280_pressure;Samples;Min_cycle;Max_cycle;Signal;HPM_P1;HPM_P2
2023/06/17 00:05:00;;;;;;;5.57;4.22;;;;;;;;;;10404811;28;20036;-61
2023/06/17 00:10:01;;;;;;;5.68;3.95;;;;;;;;;;10406268;28;20028;-61
2023/06/17 00:15:02;;;;;;;7.28;4.63;;;;;;;;;;10407427;28;20038;-62
2023/06/17 00:20:11;;;;;;;5.03;4.07;;;;;;;;;;10406118;28;20032;-61
2023/06/17 00:25:12;;;;;;;7.63;4.57;;;;;;;;;;10405692;28;20476;-61
2023/06/17 00:30:13;;;;;;;5.50;4.18;;;;;;;;;;10405801;28;20037;-62
2023/06/17 00:35:13;;;;;;;8.48;4.13;;;;;;;;;;10406376;28;20158;-62
2023/06/17 00:40:14;;;;;;;6.13;4.13;;;;;;;;;;10405382;28;20021;-61
2023/06/17 00:45:14;;;;;;;6.47;4.15;;;;;;;;;;10405799;28;20129;-61
2023/06/17 00:50:15;;;;;;;6.32;4.57;;;;;;;;;;10410531;28;20436;-61
2023/06/17 00:55:16;;;;;;;9.48;4.60;;;;;;;;;;10412756;28;20037;-61
2023/06/17 01:00:17;;;;;;;5.40;4.25;;;;;;;;;;10413113;28;20101;-63
2023/06/17 01:05:18;;;;;;;5.82;4.57;;;;;;;;;;10413225;28;20109;-63
2023/06/17 01:10:48;;;;;;;6.60;4.53;;;;;;;;;;10395913;28;20025;-63
2023/06/17 01:15:49;;;;;;;6.45;4.70;;;;;;;;;;10405648;28;20444;-62
2023/06/17 01:20:53;;;;;;;8.20;4.55;;;;;;;;;;10394863;28;20450;-62
2023/06/17 01:25:57;;;;;;;7.43;5.00;;;;;;;;;;10411258;28;20454;-62
2023/06/17 01:30:58;;;;;;;5.70;5.00;;;;;;;;;;10411615;28;20125;-62
2023/06/17 01:36:14;;;;;;;8.25;4.35;;;;;;;;;;10403891;28;20109;-62
2023/06/17 01:41:26;;;;;;;8.90;4.35;;;;;;;;;;10396225;28;20411;-62
2023/06/17 01:46:27;;;;;;;6.20;4.60;;;;;;;;;;10393775;28;20034;-62
2023/06/17 01:51:28;;;;;;;6.50;4.55;;;;;;;;;;10393578;28;20021;-62
2023/06/17 01:56:29;;;;;;;5.10;4.60;;;;;;;;;;10411216;28;20021;-61
2023/06/17 02:01:29;;;;;;;6.38;4.97;;;;;;;;;;10409463;28;20095;-62
2023/06/17 02:06:30;;;;;;;5.40;4.45;;;;;;;;;;10410355;28;20029;-62
2023/06/17 02:11:31;;;;;;;7.70;5.00;;;;;;;;;;10410585;28;20021;-62
2023/06/17 02:16:31;;;;;;;6.80;4.70;;;;;;;;;;10410524;28;20021;-62
2023/06/17 02:21:32;;;;;;;6.70;4.60;;;;;;;;;;10410091;28;20038;-61
2023/06/17 02:26:32;;;;;;;8.80;4.32;;;;;;;;;;10409883;28;20040;-62
2023/06/17 02:31:33;;;;;;;7.85;4.60;;;;;;;;;;10409583;28;20041;-62
2023/06/17 02:36:34;;;;;;;7.53;5.00;;;;;;;;;;10403213;28;20143;-62
2023/06/17 02:41:34;;;;;;;5.55;4.90;;;;;;;;;;10408719;28;20036;-62
2023/06/17 02:46:35;;;;;;;4.80;4.13;;;;;;;;;;10408877;28;20036;-62
2023/06/17 02:51:38;;;;;;;5.00;4.50;;;;;;;;;;10408941;28;20041;-62
2023/06/17 02:56:39;;;;;;;8.57;4.63;;;;;;;;;;10408143;28;20035;-63
2023/06/17 03:01:42;;;;;;;5.63;4.18;;;;;;;;;;10408021;28;20036;-62
2023/06/17 03:06:44;;;;;;;5.25;4.63;;;;;;;;;;10407847;28;20033;-62
2023/06/17 03:11:45;;;;;;;6.38;4.43;;;;;;;;;;10407142;28;20083;-62
2023/06/17 03:16:45;;;;;;;8.38;4.07;;;;;;;;;;10408126;28;20088;-62
2023/06/17 03:21:47;;;;;;;5.60;4.35;;;;;;;;;;10408083;28;20127;-62
2023/06/17 03:26:47;;;;;;;5.90;4.32;;;;;;;;;;10407489;28;20025;-62
2023/06/17 03:31:48;;;;;;;7.60;4.55;;;;;;;;;;10406718;28;20076;-62
2023/06/17 03:36:50;;;;;;;4.47;4.07;;;;;;;;;;10406861;28;20021;-62
2023/06/17 03:41:50;;;;;;;6.90;4.25;;;;;;;;;;10394930;28;20031;-62
2023/06/17 03:46:51;;;;;;;9.15;3.78;;;;;;;;;;10407265;28;20417;-62
2023/06/17 03:51:51;;;;;;;6.82;4.40;;;;;;;;;;10407393;28;20025;-62
2023/06/17 03:56:52;;;;;;;4.97;4.00;;;;;;;;;;10407307;28;20066;-62
2023/06/17 04:01:53;;;;;;;6.18;3.80;;;;;;;;;;10405986;28;20033;-62
2023/06/17 04:06:53;;;;;;;5.28;3.83;;;;;;;;;;10406486;28;20099;-62
2023/06/17 04:11:54;;;;;;;5.38;3.95;;;;;;;;;;10406290;28;20025;-62
2023/06/17 04:16:59;;;;;;;7.60;3.83;;;;;;;;;;10406254;28;20528;-62
2023/06/17 04:21:59;;;;;;;6.05;3.70;;;;;;;;;;10406564;28;20531;-62
2023/06/17 04:27:00;;;;;;;4.63;3.90;;;;;;;;;;10414558;28;20036;-61
2023/06/17 04:32:02;;;;;;;4.72;3.42;;;;;;;;;;10413934;28;20041;-61
2023/06/17 04:37:03;;;;;;;3.83;3.45;;;;;;;;;;10414651;28;20044;-61
2023/06/17 04:42:04;;;;;;;4.75;3.72;;;;;;;;;;10412913;28;20474;-61
2023/06/17 04:47:10;;;;;;;4.20;3.80;;;;;;;;;;10413617;28;20042;-62
2023/06/17 04:52:11;;;;;;;3.92;3.45;;;;;;;;;;10413291;28;20473;-62
2023/06/17 04:57:13;;;;;;;5.07;3.88;;;;;;;;;;10413403;28;20025;-62
2023/06/17 05:02:14;;;;;;;4.15;3.63;;;;;;;;;;10401418;28;20037;-62
2023/06/17 05:07:15;;;;;;;6.43;3.20;;;;;;;;;;10413306;28;20076;-62
2023/06/17 05:12:15;;;;;;;5.05;3.35;;;;;;;;;;10411890;28;20029;-61
2023/06/17 05:17:16;;;;;;;10.15;3.85;;;;;;;;;;10412434;28;20029;-62
2023/06/17 05:22:17;;;;;;;4.97;3.78;;;;;;;;;;10411465;28;20091;-61
2023/06/17 05:27:17;;;;;;;6.22;3.78;;;;;;;;;;10398958;28;20033;-62
2023/06/17 05:32:18;;;;;;;3.83;3.47;;;;;;;;;;10411333;28;20044;-62
2023/06/17 05:37:18;;;;;;;8.50;3.80;;;;;;;;;;10410916;28;20064;-61
2023/06/17 05:42:19;;;;;;;5.60;3.17;;;;;;;;;;10410700;28;20079;-62
2023/06/17 05:47:21;;;;;;;7.15;3.50;;;;;;;;;;10411282;28;20060;-62
2023/06/17 05:52:21;;;;;;;5.40;3.58;;;;;;;;;;10410998;28;20021;-62
2023/06/17 05:57:22;;;;;;;4.13;3.38;;;;;;;;;;10411049;28;20034;-62
2023/06/17 06:02:23;;;;;;;7.88;3.47;;;;;;;;;;10411012;28;20037;-61
2023/06/17 06:07:23;;;;;;;9.32;3.50;;;;;;;;;;10409230;28;20040;-62
2023/06/17 06:12:24;;;;;;;5.90;3.65;;;;;;;;;;10407059;28;20026;-61
2023/06/17 06:17:25;;;;;;;8.02;4.07;;;;;;;;;;10409407;28;20515;-61
2023/06/17 06:22:25;;;;;;;10.10;4.07;;;;;;;;;;10409003;28;20508;-61
2023/06/17 06:27:26;;;;;;;6.93;4.68;;;;;;;;;;10408415;28;20037;-61
2023/06/17 06:32:26;;;;;;;7.25;3.80;;;;;;;;;;10405169;28;20041;-62
2023/06/17 06:37:27;;;;;;;9.55;5.05;;;;;;;;;;10404246;28;20083;-61
2023/06/17 06:42:28;;;;;;;7.30;4.68;;;;;;;;;;10402289;28;20044;-60
2023/06/17 06:47:29;;;;;;;9.13;4.28;;;;;;;;;;10400372;28;20033;-58
2023/06/17 06:52:30;;;;;;;10.85;4.38;;;;;;;;;;10405494;28;20041;-58
2023/06/17 06:57:30;;;;;;;9.98;4.57;;;;;;;;;;10388517;28;20037;-58
2023/06/17 07:02:31;;;;;;;8.07;4.10;;;;;;;;;;10408103;28;20366;-58
2023/06/17 07:07:31;;;;;;;6.97;4.40;;;;;;;;;;10408245;28;20425;-59
2023/06/17 07:12:32;;;;;;;6.63;4.72;;;;;;;;;;10407894;28;20486;-59
2023/06/17 07:17:33;;;;;;;9.25;4.72;;;;;;;;;;10407597;28;20026;-60
2023/06/17 07:22:33;;;;;;;5.38;4.30;;;;;;;;;;10407085;28;20036;-60
2023/06/17 07:27:34;;;;;;;14.00;4.57;;;;;;;;;;10406126;28;20080;-59
2023/06/17 07:32:34;;;;;;;7.53;4.47;;;;;;;;;;10407570;28;20158;-60
2023/06/17 07:37:35;;;;;;;11.10;4.90;;;;;;;;;;10406886;28;20029;-61
2023/06/17 07:42:37;;;;;;;7.75;4.78;;;;;;;;;;10406335;28;20052;-60
2023/06/17 07:47:38;;;;;;;7.13;4.53;;;;;;;;;;10406923;28;20029;-60
2023/06/17 07:52:39;;;;;;;12.95;4.65;;;;;;;;;;10407146;28;20100;-60
2023/06/17 07:57:39;;;;;;;7.45;5.10;;;;;;;;;;10406543;28;20029;-60
2023/06/17 08:02:41;;;;;;;10.27;5.18;;;;;;;;;;10406009;28;20037;-59
2023/06/17 08:07:42;;;;;;;14.52;5.13;;;;;;;;;;10406922;28;20500;-60
2023/06/17 08:12:43;;;;;;;7.22;4.75;;;;;;;;;;10406215;28;20032;-59
2023/06/17 08:17:44;;;;;;;9.50;4.53;;;;;;;;;;10406430;28;20462;-61
2023/06/17 08:22:45;;;;;;;10.82;5.32;;;;;;;;;;10406811;28;20040;-60
2023/06/17 08:27:47;;;;;;;10.98;5.22;;;;;;;;;;10406413;28;20052;-60
2023/06/17 08:32:48;;;;;;;12.77;5.07;;;;;;;;;;10405877;28;20045;-61
2023/06/17 08:37:48;;;;;;;14.43;5.38;;;;;;;;;;10406454;28;20040;-59
2023/06/17 08:43:03;;;;;;;9.30;4.97;;;;;;;;;;10405130;28;20051;-58
2023/06/17 08:48:05;;;;;;;7.88;4.93;;;;;;;;;;10405446;28;20026;-59
2023/06/17 08:53:06;;;;;;;11.45;5.15;;;;;;;;;;10405066;28;20030;-58
2023/06/17 08:58:08;;;;;;;6.53;4.82;;;;;;;;;;10387931;28;20030;-59
2023/06/17 09:03:09;;;;;;;11.60;4.40;;;;;;;;;;10404863;28;20620;-59
2023/06/17 09:08:10;;;;;;;8.45;4.57;;;;;;;;;;10387715;28;20037;-59
2023/06/17 09:13:11;;;;;;;6.18;4.45;;;;;;;;;;10411867;28;20385;-59
2023/06/17 09:18:16;;;;;;;7.35;4.93;;;;;;;;;;10412410;28;20025;-59
2023/06/17 09:23:17;;;;;;;12.38;5.10;;;;;;;;;;10412595;28;20025;-59
2023/06/17 09:28:17;;;;;;;8.70;5.22;;;;;;;;;;10411657;28;20084;-59
2023/06/17 09:33:22;;;;;;;8.90;4.78;;;;;;;;;;10410894;28;20075;-60
2023/06/17 09:38:23;;;;;;;10.82;4.78;;;;;;;;;;10411097;28;20570;-59
2023/06/17 09:43:25;;;;;;;14.23;5.20;;;;;;;;;;10410980;28;20250;-59
2023/06/17 09:48:40;;;;;;;10.55;4.88;;;;;;;;;;10411459;28;20477;-59
2023/06/17 09:53:42;;;;;;;8.80;5.05;;;;;;;;;;10410993;28;20033;-59
2023/06/17 09:58:43;;;;;;;11.13;5.03;;;;;;;;;;10410893;28;20240;-59
2023/06/17 10:03:45;;;;;;;8.20;5.28;;;;;;;;;;10393173;28;20028;-59
2023/06/17 10:08:52;;;;;;;11.02;5.50;;;;;;;;;;10410348;28;20028;-59
2023/06/17 10:14:17;;;;;;;5.33;4.47;;;;;;;;;;10410282;28;20024;-59
2023/06/17 10:19:24;;;;;;;6.40;4.28;;;;;;;;;;10393122;28;20036;-60
2023/06/17 10:24:26;;;;;;;4.57;3.87;;;;;;;;;;10392058;28;20481;-60
2023/06/17 10:29:27;;;;;;;8.23;4.50;;;;;;;;;;10392397;28;20029;-59
2023/06/17 10:34:27;;;;;;;7.72;4.28;;;;;;;;;;10408693;28;20128;-59
2023/06/17 10:39:28;;;;;;;8.63;4.50;;;;;;;;;;10408799;28;20022;-59
2023/06/17 10:44:35;;;;;;;7.05;4.82;;;;;;;;;;10391834;28;20028;-59
2023/06/17 10:49:39;;;;;;;6.47;4.10;;;;;;;;;;10408464;28;20033;-59
2023/06/17 10:54:52;;;;;;;5.30;4.63;;;;;;;;;;10408679;28;20454;-59
2023/06/17 10:59:53;;;;;;;5.70;4.63;;;;;;;;;;10408600;28;20025;-59
2023/06/17 11:04:57;;;;;;;5.90;4.97;;;;;;;;;;10407725;28;20521;-60
2023/06/17 11:09:58;;;;;;;8.73;4.90;;;;;;;;;;10408364;28;20113;-60
2023/06/17 11:14:59;;;;;;;8.15;4.88;;;;;;;;;;10408218;28;20019;-60
2023/06/17 11:20:00;;;;;;;4.93;4.20;;;;;;;;;;10406436;28;20053;-59
2023/06/17 11:25:01;;;;;;;9.77;4.63;;;;;;;;;;10407520;28;20141;-60
2023/06/17 11:30:03;;;;;;;6.68;4.50;;;;;;;;;;10407159;28;20030;-60
2023/06/17 11:35:04;;;;;;;7.00;4.85;;;;;;;;;;10406065;28;20040;-59
2023/06/17 11:40:12;;;;;;;6.55;4.45;;;;;;;;;;10407410;28;20021;-59
2023/06/17 11:45:13;;;;;;;;;;;;;;;;;;10407493;28;20069;-59
2023/06/17 11:50:14;;;;;;;8.73;4.75;;;;;;;;;;10389499;28;20483;-59
2023/06/17 11:55:15;;;;;;;7.05;4.32;;;;;;;;;;10406872;28;20033;-60
2023/06/17 12:00:15;;;;;;;6.47;4.47;;;;;;;;;;10407124;28;20034;-59
2023/06/17 12:05:16;;;;;;;6.78;5.05;;;;;;;;;;10406032;28;20056;-60
2023/06/17 12:10:17;;;;;;;9.20;4.85;;;;;;;;;;10387452;28;20076;-60
2023/06/17 12:15:24;;;;;;;7.40;4.78;;;;;;;;;;10406472;28;20520;-59
2023/06/17 12:20:25;;;;;;;6.13;4.63;;;;;;;;;;10389009;28;20057;-60
2023/06/17 12:25:25;;;;;;;4.97;4.47;;;;;;;;;;10406829;28;20041;-59
2023/06/17 12:30:26;;;;;;;5.78;4.80;;;;;;;;;;10405752;28;20054;-59
2023/06/17 12:35:27;;;;;;;6.28;4.72;;;;;;;;;;10407104;28;20373;-60
2023/06/17 12:40:27;;;;;;;7.07;4.82;;;;;;;;;;10405517;28;20025;-60
2023/06/17 12:45:29;;;;;;;11.48;4.47;;;;;;;;;;10409369;28;20500;-59
2023/06/17 12:50:30;;;;;;;10.63;4.43;;;;;;;;;;10413068;28;20061;-62
2023/06/17 12:55:30;;;;;;;9.38;5.10;;;;;;;;;;10412981;28;20373;-59
2023/06/17 13:00:31;;;;;;;9.10;4.75;;;;;;;;;;10412505;28;20037;-59
2023/06/17 13:05:31;;;;;;;6.15;4.50;;;;;;;;;;10411923;28;20087;-60
2023/06/17 13:10:33;;;;;;;10.38;5.30;;;;;;;;;;10412726;28;20040;-60
2023/06/17 13:15:33;;;;;;;10.73;4.78;;;;;;;;;;10411979;28;20025;-59
2023/06/17 13:20:35;;;;;;;12.38;4.90;;;;;;;;;;10411029;28;20033;-59
2023/06/17 13:25:35;;;;;;;9.32;5.45;;;;;;;;;;10412185;28;20041;-59
2023/06/17 13:30:36;;;;;;;8.80;5.20;;;;;;;;;;10442793;23;20053;-57
2023/06/17 13:35:37;;;;;;;14.95;5.38;;;;;;;;;;10493557;28;20043;-56
2023/06/17 13:40:37;;;;;;;10.90;5.13;;;;;;;;;;10494952;28;20476;-56
2023/06/17 13:45:38;;;;;;;11.07;5.50;;;;;;;;;;10494686;28;20040;-55
2023/06/17 13:50:38;;;;;;;9.65;5.30;;;;;;;;;;10493151;28;20036;-55
2023/06/17 13:55:39;;;;;;;11.20;5.43;;;;;;;;;;10493429;28;20031;-56
2023/06/17 14:00:40;;;;;;;7.97;5.40;;;;;;;;;;10495074;28;20160;-54
2023/06/17 14:05:41;;;;;;;9.13;5.00;;;;;;;;;;10493537;28;20028;-55
2023/06/17 14:10:41;;;;;;;8.63;5.35;;;;;;;;;;10494019;28;20021;-56
2023/06/17 14:15:42;;;;;;;9.73;5.13;;;;;;;;;;10493791;28;20031;-55
2023/06/17 14:20:43;;;;;;;7.68;4.80;;;;;;;;;;10494835;28;20454;-56
2023/06/17 14:25:43;;;;;;;8.82;5.45;;;;;;;;;;10494788;28;20066;-55
2023/06/17 14:30:44;;;;;;;7.43;5.00;;;;;;;;;;10494109;28;20047;-57
2023/06/17 14:35:45;;;;;;;5.93;4.93;;;;;;;;;;10495116;28;20567;-60
2023/06/17 14:40:45;;;;;;;8.18;5.20;;;;;;;;;;10493314;28;20027;-60
2023/06/17 14:45:46;;;;;;;7.70;4.88;;;;;;;;;;10493544;28;20082;-60
2023/06/17 14:50:46;;;;;;;8.73;5.32;;;;;;;;;;10492505;28;20031;-59
2023/06/17 14:56:02;;;;;;;11.32;5.22;;;;;;;;;;10493162;28;20024;-57
2023/06/17 15:01:03;;;;;;;12.60;4.88;;;;;;;;;;10481920;28;20107;-57
2023/06/17 15:06:04;;;;;;;6.88;4.43;;;;;;;;;;10490826;28;20032;-56
2023/06/17 15:11:04;;;;;;;7.35;5.13;;;;;;;;;;10491139;28;20020;-57
2023/06/17 15:16:05;;;;;;;8.20;4.43;;;;;;;;;;10493171;28;20025;-57
2023/06/17 15:21:06;;;;;;;5.75;4.15;;;;;;;;;;10491705;28;20103;-57
2023/06/17 15:26:07;;;;;;;9.80;4.20;;;;;;;;;;10491810;28;20499;-57
2023/06/17 15:31:07;;;;;;;5.45;4.22;;;;;;;;;;10492302;28;20504;-56
2023/06/17 15:36:08;;;;;;;7.20;3.90;;;;;;;;;;10488551;28;20028;-57
2023/06/17 15:41:08;;;;;;;5.32;4.20;;;;;;;;;;10490551;28;20484;-58
2023/06/17 15:46:09;;;;;;;10.10;4.40;;;;;;;;;;10491081;28;20388;-57
2023/06/17 15:51:10;;;;;;;5.78;4.05;;;;;;;;;;10505931;28;20434;-58
2023/06/17 15:56:10;;;;;;;4.43;3.65;;;;;;;;;;10484109;28;20033;-58
2023/06/17 16:01:11;;;;;;;5.82;4.05;;;;;;;;;;10479624;28;20036;-60
2023/06/17 16:06:12;;;;;;;5.45;4.20;;;;;;;;;;10486943;28;20036;-59
2023/06/17 16:11:13;;;;;;;5.88;4.18;;;;;;;;;;10489588;28;20115;-60
2023/06/17 16:16:13;;;;;;;5.30;4.00;;;;;;;;;;10487337;28;20029;-59
2023/06/17 16:21:14;;;;;;;6.32;4.35;;;;;;;;;;10489293;28;20020;-60
2023/06/17 16:26:14;;;;;;;7.93;4.18;;;;;;;;;;10497318;28;20028;-60
2023/06/17 16:31:15;;;;;;;6.13;3.63;;;;;;;;;;10495900;28;20045;-60
2023/06/17 16:36:16;;;;;;;4.18;3.67;;;;;;;;;;10498987;28;20029;-59
2023/06/17 16:41:16;;;;;;;4.70;4.20;;;;;;;;;;10493406;28;20025;-59
2023/06/17 16:46:17;;;;;;;4.47;3.67;;;;;;;;;;10497114;28;20033;-59
2023/06/17 16:51:18;;;;;;;3.72;3.17;;;;;;;;;;10495438;28;20028;-59
2023/06/17 16:56:18;;;;;;;5.38;4.15;;;;;;;;;;10487694;28;20080;-59
2023/06/17 17:01:19;;;;;;;4.55;3.85;;;;;;;;;;10501741;28;20028;-59
2023/06/17 17:06:20;;;;;;;8.60;3.70;;;;;;;;;;10491095;28;20488;-59
2023/06/17 17:11:20;;;;;;;5.97;4.40;;;;;;;;;;10491202;28;20041;-58
2023/06/17 17:16:21;;;;;;;5.60;3.90;;;;;;;;;;10497801;28;20028;-59
2023/06/17 17:21:22;;;;;;;8.27;3.65;;;;;;;;;;10494887;28;20111;-59
2023/06/17 17:26:22;;;;;;;9.13;3.80;;;;;;;;;;10492788;28;20044;-58
2023/06/17 17:31:24;;;;;;;7.65;3.45;;;;;;;;;;10483045;28;20102;-58
2023/06/17 17:36:24;;;;;;;6.80;3.63;;;;;;;;;;10492302;28;20033;-60
2023/06/17 17:41:25;;;;;;;6.70;3.72;;;;;;;;;;10494518;28;20024;-60
2023/06/17 17:46:27;;;;;;;7.47;3.67;;;;;;;;;;10494455;28;20035;-60
2023/06/17 17:51:27;;;;;;;12.35;3.75;;;;;;;;;;10494437;28;20035;-60
2023/06/17 17:56:28;;;;;;;10.48;3.88;;;;;;;;;;10495384;28;20028;-59
2023/06/17 18:01:28;;;;;;;9.82;4.00;;;;;;;;;;10491387;28;20032;-60
2023/06/17 18:06:29;;;;;;;7.68;3.55;;;;;;;;;;10492083;28;20484;-59
2023/06/17 18:11:30;;;;;;;16.83;4.18;;;;;;;;;;10486240;28;20039;-60
2023/06/17 18:16:31;;;;;;;13.93;3.97;;;;;;;;;;10492405;28;20032;-60
2023/06/17 18:21:32;;;;;;;9.27;3.72;;;;;;;;;;10490087;28;20039;-60
2023/06/17 18:26:32;;;;;;;8.50;3.97;;;;;;;;;;10491180;28;20039;-60
2023/06/17 18:31:33;;;;;;;8.15;3.85;;;;;;;;;;10492558;28;20109;-58
2023/06/17 18:36:34;;;;;;;9.32;3.70;;;;;;;;;;10492293;28;20040;-58
2023/06/17 18:41:35;;;;;;;9.07;4.05;;;;;;;;;;10486339;28;20468;-58
2023/06/17 18:46:36;;;;;;;8.52;3.63;;;;;;;;;;10488485;28;20020;-60
2023/06/17 18:51:37;;;;;;;4.70;3.40;;;;;;;;;;10492300;28;20059;-54
2023/06/17 18:56:38;;;;;;;9.55;3.63;;;;;;;;;;10482759;28;20032;-58
2023/06/17 19:01:38;;;;;;;12.30;3.35;;;;;;;;;;10490592;28;20081;-56
2023/06/17 19:06:39;;;;;;;14.30;3.70;;;;;;;;;;10493587;28;20025;-58
2023/06/17 19:11:40;;;;;;;12.00;3.80;;;;;;;;;;10487921;28;20031;-58
2023/06/17 19:16:41;;;;;;;16.42;4.13;;;;;;;;;;10490656;28;20468;-58
2023/06/17 19:21:42;;;;;;;9.35;3.97;;;;;;;;;;10491615;28;20024;-57
2023/06/17 19:26:42;;;;;;;15.73;4.55;;;;;;;;;;10486305;28;20185;-55
2023/06/17 19:31:43;;;;;;;8.52;3.63;;;;;;;;;;10491452;28;20044;-61
2023/06/17 19:36:43;;;;;;;11.20;4.80;;;;;;;;;;10486894;28;20031;-62
2023/06/17 19:41:44;;;;;;;11.40;5.55;;;;;;;;;;10482678;28;20047;-62
2023/06/17 19:46:45;;;;;;;7.68;5.82;;;;;;;;;;10488199;28;20032;-63
2023/06/17 19:51:47;;;;;;;9.75;5.50;;;;;;;;;;10488703;28;20476;-63
2023/06/17 19:56:48;;;;;;;12.80;5.63;;;;;;;;;;10487844;28;20028;-63
2023/06/17 20:01:50;;;;;;;10.07;5.65;;;;;;;;;;10486724;28;20468;-63
2023/06/17 20:06:51;;;;;;;10.95;5.88;;;;;;;;;;10488734;28;20434;-63
2023/06/17 20:11:51;;;;;;;9.48;6.00;;;;;;;;;;10487076;28;20024;-63
2023/06/17 20:16:53;;;;;;;7.90;5.63;;;;;;;;;;10492241;28;20052;-62
2023/06/17 20:21:53;;;;;;;6.47;5.60;;;;;;;;;;10489394;28;20036;-62
2023/06/17 20:26:54;;;;;;;8.50;6.47;;;;;;;;;;10487338;28;20029;-63
2023/06/17 20:31:55;;;;;;;8.95;6.32;;;;;;;;;;10489800;28;20040;-59
2023/06/17 20:36:55;;;;;;;9.38;6.22;;;;;;;;;;10489711;28;20032;-60
2023/06/17 20:41:56;;;;;;;9.55;6.57;;;;;;;;;;10488082;28;20396;-60
2023/06/17 20:46:59;;;;;;;11.25;6.53;;;;;;;;;;10483496;28;20498;-57
2023/06/17 20:52:00;;;;;;;9.52;6.47;;;;;;;;;;10487225;28;20063;-60
2023/06/17 20:57:01;;;;;;;11.98;6.85;;;;;;;;;;10484068;28;20533;-59
2023/06/17 21:02:01;;;;;;;16.27;6.57;;;;;;;;;;10484801;28;20035;-58
2023/06/17 21:07:02;;;;;;;15.70;6.80;;;;;;;;;;10492387;28;20031;-59
2023/06/17 21:12:03;;;;;;;9.90;5.82;;;;;;;;;;10496497;28;20431;-59
2023/06/17 21:17:04;;;;;;;12.98;6.03;;;;;;;;;;10500069;28;20393;-58
2023/06/17 21:22:04;;;;;;;10.60;6.35;;;;;;;;;;10489940;28;20028;-58
2023/06/17 21:27:10;;;;;;;15.55;5.70;;;;;;;;;;10483127;28;20043;-59
2023/06/17 21:32:11;;;;;;;9.48;6.10;;;;;;;;;;10494030;28;20057;-54
2023/06/17 21:37:12;;;;;;;15.25;6.10;;;;;;;;;;10492967;28;20032;-59
2023/06/17 21:42:13;;;;;;;7.65;6.00;;;;;;;;;;10493650;28;20124;-55
2023/06/17 21:47:14;;;;;;;9.60;5.70;;;;;;;;;;10493460;28;20024;-57
2023/06/17 21:52:14;;;;;;;10.05;6.20;;;;;;;;;;10491909;28;20028;-57
2023/06/17 21:57:15;;;;;;;13.38;5.88;;;;;;;;;;10492719;28;20039;-57
2023/06/17 22:02:15;;;;;;;12.05;5.85;;;;;;;;;;10493141;28;20032;-58
2023/06/17 22:07:16;;;;;;;6.95;5.88;;;;;;;;;;10493164;28;20036;-56
2023/06/17 22:12:16;;;;;;;8.10;5.43;;;;;;;;;;10492460;28;20078;-59
2023/06/17 22:17:17;;;;;;;9.60;5.55;;;;;;;;;;10495530;28;20225;-57
2023/06/17 22:22:18;;;;;;;13.45;6.35;;;;;;;;;;10499785;28;20027;-58
2023/06/17 22:27:18;;;;;;;10.05;5.82;;;;;;;;;;10490728;28;20021;-57
2023/06/17 22:32:19;;;;;;;8.25;5.57;;;;;;;;;;10489531;28;20051;-60
2023/06/17 22:37:20;;;;;;;8.52;5.63;;;;;;;;;;10489813;28;20062;-59
2023/06/17 22:42:21;;;;;;;6.63;5.40;;;;;;;;;;10489649;28;20037;-60
2023/06/17 22:47:22;;;;;;;5.75;5.05;;;;;;;;;;10489446;28;20028;-60
2023/06/17 22:52:22;;;;;;;6.93;5.45;;;;;;;;;;10489528;28;20028;-59
2023/06/17 22:57:23;;;;;;;13.57;6.00;;;;;;;;;;10491643;28;20028;-60
2023/06/17 23:02:23;;;;;;;10.48;5.72;;;;;;;;;;10489595;28;20025;-61
2023/06/17 23:07:24;;;;;;;7.57;5.68;;;;;;;;;;10490378;28;20044;-61
2023/06/17 23:12:26;;;;;;;7.85;5.30;;;;;;;;;;10489845;28;20492;-60
2023/06/17 23:17:26;;;;;;;6.88;4.78;;;;;;;;;;10495026;28;20027;-60
2023/06/17 23:22:27;;;;;;;7.18;5.00;;;;;;;;;;10491760;28;20506;-60
2023/06/17 23:27:28;;;;;;;8.40;5.35;;;;;;;;;;10490939;28;20115;-60
2023/06/17 23:32:29;;;;;;;8.25;4.93;;;;;;;;;;10491070;28;20040;-58
2023/06/17 23:37:29;;;;;;;6.05;5.05;;;;;;;;;;10488762;28;20025;-58
2023/06/17 23:42:30;;;;;;;9.00;5.55;;;;;;;;;;10490329;28;20032;-58
2023/06/17 23:47:30;;;;;;;16.05;5.60;;;;;;;;;;10491788;28;20036;-58
2023/06/17 23:52:31;;;;;;;16.80;5.75;;;;;;;;;;10490668;28;20048;-59
2023/06/17 23:57:32;;;;;;;7.57;5.72;;;;;;;;;;10490330;28;20180;-58
